Time;durP1;ratioP1;P1;durP2;ratioP2;P2;SDS_P1;SDS_P2;PMS_P1;PMS_P2;Temp;Humidity;BMP_temperature;BMP_pressure;BME280_temperature;BME280_humidity;BME280_pressure;Samples;Min_cycle;Max_cycle;Signal;HPM_P1;HPM_P2
2021/06/30 00:02:24;;;;;;;2.63;2.42;;;16.40;99.90;;;;;;6248191;28;21458;-78
2021/06/30 00:05:26;;;;;;;3.88;2.92;;;16.40;99.90;;;;;;6228292;28;20089;-78
2021/06/30 00:08:28;;;;;;;7.05;2.67;;;16.30;99.90;;;;;;6228365;28;20175;-78
2021/06/30 00:11:31;;;;;;;4.80;2.85;;;16.30;99.90;;;;;;6228636;28;20172;-78
2021/06/30 00:14:35;;;;;;;4.90;2.85;;;16.30;99.90;;;;;;6228539;28;20072;-77
2021/06/30 00:17:37;;;;;;;6.13;2.63;;;16.30;99.90;;;;;;6228555;28;20464;-78
2021/06/30 00:20:39;;;;;;;4.15;2.55;;;16.40;99.90;;;;;;6227847;28;20148;-78
2021/06/30 00:23:41;;;;;;;3.97;2.88;;;16.40;99.90;;;;;;6228594;28;20050;-78
2021/06/30 00:26:42;;;;;;;2.97;2.67;;;16.30;99.90;;;;;;6227637;28;20125;-77
2021/06/30 00:29:46;;;;;;;5.07;2.83;;;16.30;99.90;;;;;;6229060;28;20148;-79
2021/06/30 00:32:48;;;;;;;7.30;3.15;;;16.40;99.90;;;;;;6228827;28;20073;-77
2021/06/30 00:35:49;;;;;;;3.90;2.60;;;16.40;99.90;;;;;;6250252;28;20091;-78
2021/06/30 00:38:51;;;;;;;3.90;1.73;;;16.40;99.90;;;;;;6253048;28;20416;-79
2021/06/30 00:41:57;;;;;;;3.35;2.30;;;16.40;99.90;;;;;;6252243;28;20049;-78
2021/06/30 00:45:00;;;;;;;4.82;1.95;;;16.50;99.90;;;;;;6253526;28;20053;-78
2021/06/30 00:48:01;;;;;;;2.92;1.77;;;16.50;99.90;;;;;;6251805;28;20042;-78
2021/06/30 00:51:03;;;;;;;1.45;1.35;;;16.50;99.90;;;;;;6252734;28;20049;-78
2021/06/30 00:54:06;;;;;;;3.65;1.52;;;16.60;99.90;;;;;;6252650;28;20136;-79
2021/06/30 00:57:10;;;;;;;3.05;1.60;;;16.60;99.90;;;;;;6252891;28;20549;-79
2021/06/30 01:00:15;;;;;;;3.75;1.38;;;16.60;99.90;;;;;;6252406;28;20049;-79
2021/06/30 01:03:17;;;;;;;1.25;1.08;;;16.60;99.90;;;;;;6252883;28;20144;-78
2021/06/30 01:06:19;;;;;;;3.33;1.23;;;16.60;99.90;;;;;;6252217;28;20057;-78
2021/06/30 01:09:21;;;;;;;1.17;1.10;;;16.50;99.90;;;;;;6253290;28;20049;-79
2021/06/30 01:12:23;;;;;;;1.85;1.40;;;16.50;99.90;;;;;;6253787;28;20107;-78
2021/06/30 01:15:26;;;;;;;4.82;1.40;;;16.40;99.90;;;;;;6253350;28;20061;-78
2021/06/30 01:18:30;;;;;;;2.03;0.95;;;16.50;99.90;;;;;;6254031;28;20052;-79
2021/06/30 01:21:32;;;;;;;3.83;1.08;;;16.40;99.90;;;;;;6259192;28;20124;-79
2021/06/30 01:24:36;;;;;;;2.45;1.08;;;16.40;99.90;;;;;;6280771;28;20025;-78
2021/06/30 01:27:38;;;;;;;5.68;1.13;;;16.40;99.90;;;;;;6280340;28;20037;-77
2021/06/30 01:30:40;;;;;;;7.65;1.45;;;16.30;99.90;;;;;;6279794;28;20021;-77
2021/06/30 01:33:42;;;;;;;1.33;1.23;;;16.30;99.90;;;;;;6280029;28;20076;-77
2021/06/30 01:36:45;;;;;;;3.38;1.10;;;16.30;99.90;;;;;;6279027;28;20033;-77
2021/06/30 01:39:48;;;;;;;3.20;1.30;;;16.20;99.90;;;;;;6279589;28;20030;-77
2021/06/30 01:42:52;;;;;;;2.10;0.88;;;16.10;99.90;;;;;;6279365;28;20056;-78
2021/06/30 01:45:55;;;;;;;2.70;1.25;;;16.10;99.90;;;;;;6279175;28;20046;-77
2021/06/30 01:48:57;;;;;;;0.77;0.73;;;16.10;99.90;;;;;;6278280;28;20037;-77
2021/06/30 01:51:59;;;;;;;2.42;0.90;;;16.00;99.90;;;;;;6277738;28;20033;-77
2021/06/30 01:55:02;;;;;;;0.88;0.77;;;16.10;99.90;;;;;;6274008;28;20103;-78
2021/06/30 01:58:05;;;;;;;1.85;1.15;;;16.00;99.90;;;;;;6247884;28;20489;-78
2021/06/30 02:01:09;;;;;;;1.75;1.00;;;16.10;99.90;;;;;;6248753;28;20125;-77
2021/06/30 02:04:11;;;;;;;1.15;1.05;;;16.10;99.90;;;;;;6248600;28;20073;-77
2021/06/30 02:07:13;;;;;;;0.85;0.80;;;16.20;99.90;;;;;;6249167;28;20049;-76
2021/06/30 02:10:17;;;;;;;1.95;1.20;;;16.20;99.90;;;;;;6248843;28;20172;-77
2021/06/30 02:13:19;;;;;;;3.33;1.23;;;16.20;99.90;;;;;;6249150;28;20188;-78
2021/06/30 02:16:21;;;;;;;2.92;0.80;;;16.20;99.90;;;;;;6248779;28;20052;-77
2021/06/30 02:19:23;;;;;;;1.10;0.70;;;16.10;99.90;;;;;;6249645;28;20050;-77
2021/06/30 02:22:25;;;;;;;4.13;1.00;;;16.00;99.90;;;;;;6248961;28;20096;-77
2021/06/30 02:25:30;;;;;;;0.98;0.98;;;16.00;99.90;;;;;;6250238;28;20055;-77
2021/06/30 02:28:32;;;;;;;0.88;0.80;;;15.90;99.90;;;;;;6249511;28;20176;-77
2021/06/30 02:31:34;;;;;;;3.17;1.15;;;15.90;99.90;;;;;;6249834;28;20057;-78
2021/06/30 02:34:36;;;;;;;1.58;0.90;;;15.80;99.90;;;;;;6250218;28;20103;-78
2021/06/30 02:37:38;;;;;;;5.50;0.70;;;15.80;99.90;;;;;;6249494;28;20128;-77
2021/06/30 02:40:42;;;;;;;0.68;0.63;;;15.80;99.90;;;;;;6250194;28;20135;-76
2021/06/30 02:43:44;;;;;;;0.90;0.73;;;15.80;99.90;;;;;;6250047;28;20045;-77
2021/06/30 02:46:45;;;;;;;2.05;1.08;;;15.70;99.90;;;;;;6250118;28;20045;-77
2021/06/30 02:49:47;;;;;;;1.55;1.05;;;15.70;99.90;;;;;;6249045;28;20503;-76
2021/06/30 02:52:50;;;;;;;0.93;0.85;;;15.60;99.90;;;;;;6249573;28;20183;-78
2021/06/30 02:55:54;;;;;;;1.10;1.00;;;15.60;99.90;;;;;;6249153;28;20073;-77
2021/06/30 02:58:56;;;;;;;2.15;1.35;;;15.50;99.90;;;;;;6248493;28;20091;-77
2021/06/30 03:01:57;;;;;;;3.70;1.13;;;15.50;99.90;;;;;;6249613;28;20095;-78
2021/06/30 03:04:59;;;;;;;0.63;0.60;;;15.40;99.90;;;;;;6250202;28;20459;-78
2021/06/30 03:08:01;;;;;;;1.38;1.08;;;15.30;99.90;;;;;;6248997;28;20049;-78
2021/06/30 03:11:04;;;;;;;1.17;1.13;;;15.30;99.90;;;;;;6249420;28;20045;-76
2021/06/30 03:14:06;;;;;;;1.67;1.10;;;15.20;99.90;;;;;;6253527;28;20338;-77
2021/06/30 03:17:08;;;;;;;2.97;1.00;;;15.20;99.90;;;;;;6254532;28;20101;-78
2021/06/30 03:20:13;;;;;;;3.60;0.88;;;15.10;99.90;;;;;;6253524;28;20069;-77
2021/06/30 03:23:14;;;;;;;3.13;1.45;;;15.00;99.90;;;;;;6253889;28;20430;-78
2021/06/30 03:26:18;;;;;;;1.85;1.10;;;15.00;99.90;;;;;;6252854;28;20124;-78
2021/06/30 03:29:19;;;;;;;1.23;1.02;;;14.90;99.90;;;;;;6253567;28;20073;-78
2021/06/30 03:32:21;;;;;;;1.20;0.68;;;14.90;99.90;;;;;;6252680;28;20041;-78
2021/06/30 03:35:23;;;;;;;0.82;0.77;;;14.90;99.90;;;;;;6252492;28;20180;-78
2021/06/30 03:38:25;;;;;;;12.60;3.05;;;14.90;99.90;;;;;;6250169;28;20045;-77
2021/06/30 03:41:28;;;;;;;3.80;2.53;;;14.90;99.90;;;;;;6252923;28;20106;-77
2021/06/30 03:44:30;;;;;;;2.67;1.30;;;14.80;99.90;;;;;;6252505;28;20472;-78
2021/06/30 03:47:32;;;;;;;0.70;0.70;;;14.80;99.90;;;;;;6252379;28;20053;-78
2021/06/30 03:50:34;;;;;;;0.73;0.73;;;14.80;99.90;;;;;;6252633;28;20119;-78
2021/06/30 03:53:36;;;;;;;1.63;0.70;;;14.80;99.90;;;;;;6253279;28;20195;-78
2021/06/30 03:56:39;;;;;;;3.80;0.93;;;14.80;99.90;;;;;;6254654;28;20046;-78
2021/06/30 03:59:41;;;;;;;0.70;0.70;;;14.80;99.90;;;;;;6254841;28;20503;-78
2021/06/30 04:02:42;;;;;;;5.70;0.90;;;14.80;99.90;;;;;;6255483;28;20629;-78
2021/06/30 04:05:45;;;;;;;1.27;0.82;;;14.80;99.90;;;;;;6254747;28;20077;-78
2021/06/30 04:08:47;;;;;;;1.05;0.98;;;14.90;99.90;;;;;;6254689;28;20124;-77
2021/06/30 04:11:50;;;;;;;2.38;0.70;;;14.90;99.90;;;;;;6254854;28;20126;-77
2021/06/30 04:14:52;;;;;;;0.73;0.60;;;14.90;99.90;;;;;;6252191;28;20633;-78
2021/06/30 04:17:54;;;;;;;1.02;0.75;;;14.90;99.90;;;;;;6252186;28;20077;-77
2021/06/30 04:20:56;;;;;;;1.20;0.80;;;14.90;99.90;;;;;;6253150;28;20053;-78
2021/06/30 04:23:57;;;;;;;0.98;0.73;;;14.90;99.90;;;;;;6250938;28;20570;-78
2021/06/30 04:27:01;;;;;;;0.70;0.70;;;14.90;99.90;;;;;;6250502;28;20069;-78
2021/06/30 04:30:07;;;;;;;1.10;1.00;;;14.90;99.90;;;;;;6251471;28;20135;-78
2021/06/30 04:33:08;;;;;;;1.02;0.88;;;14.90;99.90;;;;;;6252349;28;20049;-77
2021/06/30 04:36:10;;;;;;;1.05;0.77;;;15.00;99.90;;;;;;6251259;28;20084;-77
2021/06/30 04:39:13;;;;;;;1.10;1.00;;;15.10;99.90;;;;;;6250881;28;20061;-77
2021/06/30 04:42:18;;;;;;;0.85;0.85;;;15.10;99.90;;;;;;6251805;28;20047;-77
2021/06/30 04:45:20;;;;;;;4.53;0.75;;;15.20;99.90;;;;;;6253219;28;20053;-78
2021/06/30 04:48:22;;;;;;;2.50;1.40;;;15.30;99.90;;;;;;6251456;28;20124;-78
2021/06/30 04:51:24;;;;;;;1.42;0.52;;;15.30;99.90;;;;;;6252139;28;20046;-78
2021/06/30 04:54:26;;;;;;;1.45;0.70;;;15.40;99.90;;;;;;6250988;28;20057;-78
2021/06/30 04:57:29;;;;;;;1.27;0.80;;;15.40;99.90;;;;;;6251825;28;20518;-78
2021/06/30 05:00:31;;;;;;;1.15;0.90;;;15.50;99.90;;;;;;6251604;28;20069;-78
2021/06/30 05:03:33;;;;;;;0.88;0.57;;;15.60;99.90;;;;;;6252170;28;20092;-78
2021/06/30 05:06:36;;;;;;;0.70;0.68;;;15.70;99.90;;;;;;6250849;28;20109;-78
2021/06/30 05:09:38;;;;;;;0.88;0.85;;;15.70;99.90;;;;;;6251937;28;20053;-77
2021/06/30 05:12:41;;;;;;;12.32;1.58;;;15.80;99.90;;;;;;6251288;28;20068;-78
2021/06/30 05:15:43;;;;;;;0.70;0.70;;;15.90;99.90;;;;;;6251180;28;20057;-78
2021/06/30 05:18:45;;;;;;;1.95;0.90;;;16.00;99.90;;;;;;6249753;28;20084;-77
2021/06/30 05:21:47;;;;;;;1.67;1.40;;;16.00;99.90;;;;;;6249569;28;20132;-78
2021/06/30 05:24:49;;;;;;;0.80;0.65;;;16.20;99.90;;;;;;6251141;28;20131;-77
2021/06/30 05:27:52;;;;;;;0.57;0.57;;;16.50;99.90;;;;;;6249848;28;20580;-77
2021/06/30 05:30:53;;;;;;;1.80;0.65;;;16.80;99.90;;;;;;6250097;28;20183;-78
2021/06/30 05:33:55;;;;;;;3.03;0.75;;;16.90;99.90;;;;;;6248341;28;20582;-77
2021/06/30 05:36:57;;;;;;;0.80;0.80;;;16.90;99.90;;;;;;6248243;28;20166;-78
2021/06/30 05:39:59;;;;;;;1.52;0.77;;;17.00;99.90;;;;;;6247711;28;20175;-77
2021/06/30 05:43:03;;;;;;;3.95;1.42;;;17.00;99.90;;;;;;6247048;28;20160;-78
2021/06/30 05:46:04;;;;;;;1.17;0.70;;;17.00;99.90;;;;;;6248651;28;20092;-78
2021/06/30 05:49:06;;;;;;;0.60;0.60;;;16.90;99.90;;;;;;6249128;28;20255;-78
2021/06/30 05:52:08;;;;;;;1.02;0.80;;;16.80;99.90;;;;;;6248395;28;20127;-78
2021/06/30 05:55:12;;;;;;;1.02;0.60;;;16.80;99.90;;;;;;6248606;28;20587;-78
2021/06/30 05:58:15;;;;;;;1.65;0.75;;;17.10;99.90;;;;;;6249128;28;20126;-78
2021/06/30 06:01:17;;;;;;;0.43;0.40;;;17.40;99.90;;;;;;6249598;28;20172;-78
2021/06/30 06:04:19;;;;;;;3.30;0.82;;;17.60;99.90;;;;;;6239982;28;20128;-78
2021/06/30 06:07:20;;;;;;;1.80;1.00;;;17.70;99.90;;;;;;6274776;28;20460;-78
2021/06/30 06:10:22;;;;;;;0.63;0.63;;;17.80;99.90;;;;;;6298086;28;20119;-78
2021/06/30 06:13:26;;;;;;;2.10;0.65;;;18.10;99.90;;;;;;6298694;28;20080;-78
2021/06/30 06:16:28;;;;;;;1.15;0.70;;;18.50;99.90;;;;;;6297971;28;20181;-78
2021/06/30 06:19:29;;;;;;;0.95;0.95;;;18.50;99.90;;;;;;6297946;28;20060;-78
2021/06/30 06:22:31;;;;;;;1.73;0.57;;;18.50;99.90;;;;;;6297564;28;20110;-77
2021/06/30 06:25:33;;;;;;;0.90;0.47;;;18.70;99.90;;;;;;6295960;28;20127;-77
2021/06/30 06:28:37;;;;;;;1.48;0.50;;;18.80;99.80;;;;;;6294652;28;20557;-77
2021/06/30 06:31:40;;;;;;;0.63;0.47;;;18.70;99.90;;;;;;6294713;28;20595;-77
2021/06/30 06:34:42;;;;;;;0.68;0.60;;;18.50;99.90;;;;;;6294849;28;20067;-77
2021/06/30 06:37:44;;;;;;;1.80;0.75;;;18.10;99.90;;;;;;6295774;28;20105;-77
2021/06/30 06:40:46;;;;;;;0.60;0.55;;;17.90;99.90;;;;;;6288625;28;20123;-78
2021/06/30 06:43:50;;;;;;;1.70;0.80;;;17.70;99.90;;;;;;6274460;28;20578;-78
2021/06/30 06:46:52;;;;;;;0.40;0.40;;;17.50;99.90;;;;;;6272494;28;20104;-78
2021/06/30 06:49:53;;;;;;;1.27;0.73;;;17.20;99.90;;;;;;6277028;28;20052;-77
2021/06/30 06:52:55;;;;;;;2.03;0.70;;;17.00;99.90;;;;;;6275678;28;20497;-77
2021/06/30 06:56:00;;;;;;;1.00;0.55;;;16.70;99.90;;;;;;6276121;28;20087;-77
2021/06/30 06:59:03;;;;;;;4.15;2.63;;;16.50;99.90;;;;;;6276478;28;20075;-78
2021/06/30 07:02:05;;;;;;;1.00;0.80;;;16.50;99.90;;;;;;6276422;28;20138;-78
2021/06/30 07:05:08;;;;;;;0.93;0.73;;;16.40;99.90;;;;;;6276652;28;20091;-78
2021/06/30 07:08:10;;;;;;;1.73;0.93;;;16.40;99.90;;;;;;6276361;28;20064;-77
2021/06/30 07:11:12;;;;;;;2.83;1.10;;;16.40;99.90;;;;;;6276318;28;20065;-78
2021/06/30 07:14:15;;;;;;;1.17;0.85;;;16.50;99.90;;;;;;6277778;28;20529;-77
2021/06/30 07:17:17;;;;;;;1.65;1.00;;;16.50;99.90;;;;;;6277424;28;20155;-77
2021/06/30 07:20:19;;;;;;;3.78;0.90;;;16.60;99.90;;;;;;6276413;28;20079;-78
2021/06/30 07:23:21;;;;;;;5.00;1.50;;;16.60;99.90;;;;;;6276644;28;20048;-77
2021/06/30 07:26:23;;;;;;;1.20;0.70;;;16.40;99.90;;;;;;6276392;28;20124;-78
2021/06/30 07:29:26;;;;;;;0.75;0.57;;;16.30;99.90;;;;;;6276818;28;20154;-78
2021/06/30 07:32:28;;;;;;;2.35;1.30;;;16.10;99.90;;;;;;6276529;28;20543;-77
2021/06/30 07:35:30;;;;;;;1.00;0.68;;;16.10;99.90;;;;;;6276307;28;20132;-77
2021/06/30 07:38:31;;;;;;;1.30;1.00;;;16.00;99.90;;;;;;6276196;28;20127;-78
2021/06/30 07:41:33;;;;;;;2.55;1.00;;;15.90;99.90;;;;;;6283355;28;20076;-78
2021/06/30 07:44:36;;;;;;;2.28;1.23;;;15.80;99.90;;;;;;6299687;28;20052;-77
2021/06/30 07:47:38;;;;;;;2.53;1.48;;;15.80;99.90;;;;;;6299946;28;20099;-78
2021/06/30 07:50:40;;;;;;;5.45;1.90;;;15.80;99.90;;;;;;6299645;28;20075;-77
2021/06/30 07:53:43;;;;;;;1.83;1.40;;;15.80;99.90;;;;;;6299603;28;20139;-77
2021/06/30 07:56:45;;;;;;;2.75;2.25;;;15.80;99.90;;;;;;6298429;28;20048;-77
2021/06/30 07:59:48;;;;;;;1.95;1.50;;;15.70;99.90;;;;;;6300849;28;20052;-79
2021/06/30 08:02:50;;;;;;;1.50;1.40;;;15.70;99.90;;;;;;6300861;28;20118;-77
2021/06/30 08:05:51;;;;;;;1.63;1.52;;;15.60;99.90;;;;;;6299594;28;20099;-77
2021/06/30 08:08:53;;;;;;;2.63;1.60;;;15.60;99.90;;;;;;6300928;28;20053;-77
2021/06/30 08:11:56;;;;;;;3.70;1.58;;;15.60;99.90;;;;;;6299711;28;20182;-78
2021/06/30 08:14:59;;;;;;;1.88;1.77;;;15.60;99.90;;;;;;6300611;28;20044;-77
2021/06/30 08:18:01;;;;;;;1.35;1.23;;;15.50;99.90;;;;;;6299385;28;20187;-78
2021/06/30 08:21:03;;;;;;;2.67;1.33;;;15.50;99.90;;;;;;6300714;28;20127;-78
2021/06/30 08:24:05;;;;;;;1.63;1.52;;;15.50;99.90;;;;;;6299942;28;20114;-77
2021/06/30 08:27:08;;;;;;;1.90;1.65;;;15.50;99.90;;;;;;6299310;28;20062;-78
2021/06/30 08:30:13;;;;;;;1.90;1.80;;;15.50;99.90;;;;;;6301583;28;20048;-78
2021/06/30 08:33:15;;;;;;;3.17;1.65;;;15.40;99.90;;;;;;6301249;28;20052;-77
2021/06/30 08:36:16;;;;;;;2.17;1.98;;;15.40;99.90;;;;;;6300633;28;20044;-78
2021/06/30 08:39:18;;;;;;;2.63;1.98;;;15.40;99.90;;;;;;6299738;28;20068;-77
2021/06/30 08:42:20;;;;;;;2.35;2.15;;;15.40;99.90;;;;;;6292217;28;20044;-78
2021/06/30 08:45:23;;;;;;;2.83;2.13;;;15.50;99.90;;;;;;6279291;28;20140;-78
2021/06/30 08:48:29;;;;;;;1.90;1.73;;;15.50;99.90;;;;;;6295341;28;20583;-77
2021/06/30 08:51:32;;;;;;;6.10;1.65;;;15.60;99.90;;;;;;6298928;28;20051;-78
2021/06/30 08:54:34;;;;;;;2.40;2.05;;;15.70;99.90;;;;;;6299115;28;20119;-78
2021/06/30 08:57:38;;;;;;;3.88;2.28;;;15.90;99.90;;;;;;6299583;28;20102;-77
2021/06/30 09:00:42;;;;;;;2.53;1.98;;;16.10;99.90;;;;;;6299595;28;20477;-77
2021/06/30 09:03:48;;;;;;;1.70;1.48;;;16.30;99.90;;;;;;6299723;28;20052;-79
2021/06/30 09:06:51;;;;;;;1.58;1.48;;;16.50;99.90;;;;;;6297913;28;20044;-77
2021/06/30 09:09:53;;;;;;;2.38;1.30;;;16.50;99.90;;;;;;6298589;28;20568;-78
2021/06/30 09:12:55;;;;;;;1.90;1.80;;;16.50;99.90;;;;;;6300610;28;20256;-77
2021/06/30 09:16:00;;;;;;;1.95;1.80;;;16.60;99.90;;;;;;6297856;28;20143;-78
2021/06/30 09:19:01;;;;;;;1.65;1.55;;;16.70;99.90;;;;;;6299901;28;20041;-78
2021/06/30 09:22:04;;;;;;;2.72;1.00;;;16.80;99.90;;;;;;6300034;28;20478;-78
2021/06/30 09:25:06;;;;;;;0.90;0.90;;;16.90;99.90;;;;;;6298761;28;20118;-78
2021/06/30 09:28:21;;;;;;;1.65;1.50;;;17.00;99.90;;;;;;6298520;28;20064;-78
2021/06/30 09:31:27;;;;;;;3.15;1.30;;;17.00;99.90;;;;;;6299096;28;20128;-78
2021/06/30 09:34:30;;;;;;;1.40;1.30;;;17.20;99.90;;;;;;6299546;28;20060;-78
2021/06/30 09:37:32;;;;;;;1.30;1.20;;;17.30;99.90;;;;;;6299417;28;20557;-78
2021/06/30 09:40:45;;;;;;;1.20;1.05;;;17.50;99.90;;;;;;6298625;28;20075;-77
2021/06/30 09:43:47;;;;;;;1.58;1.30;;;17.70;99.90;;;;;;6297864;28;20045;-78
2021/06/30 09:46:54;;;;;;;1.27;1.17;;;17.90;99.90;;;;;;6298675;28;20042;-78
2021/06/30 09:49:56;;;;;;;1.90;1.10;;;18.00;99.90;;;;;;6299621;28;20055;-78
2021/06/30 09:52:58;;;;;;;1.58;1.13;;;18.10;99.90;;;;;;6299510;28;20060;-78
2021/06/30 09:56:11;;;;;;;3.97;1.50;;;18.20;99.90;;;;;;6298773;28;20106;-78
2021/06/30 09:59:22;;;;;;;1.08;0.98;;;18.20;99.90;;;;;;6298848;28;20521;-78
2021/06/30 10:02:40;;;;;;;1.38;1.27;;;18.30;99.90;;;;;;6299068;28;20044;-78
2021/06/30 10:05:41;;;;;;;1.40;1.27;;;18.50;99.90;;;;;;6298562;28;20055;-78
2021/06/30 10:08:43;;;;;;;1.42;0.95;;;18.60;99.90;;;;;;6297925;28;20075;-78
2021/06/30 10:11:56;;;;;;;1.98;1.10;;;18.70;99.90;;;;;;6298492;28;20510;-78
2021/06/30 10:15:00;;;;;;;1.38;1.27;;;18.90;99.90;;;;;;6299009;28;20053;-78
2021/06/30 10:18:05;;;;;;;1.27;1.17;;;19.00;99.90;;;;;;6297626;28;20080;-78
2021/06/30 10:21:07;;;;;;;1.38;0.90;;;19.20;99.90;;;;;;6298524;28;20049;-78
2021/06/30 10:24:09;;;;;;;0.88;0.88;;;19.60;99.90;;;;;;6303634;28;20462;-78
2021/06/30 10:27:12;;;;;;;1.00;1.00;;;20.30;99.90;;;;;;6302630;28;20083;-76
2021/06/30 10:30:16;;;;;;;0.80;0.55;;;20.80;99.90;;;;;;6302302;28;20174;-78
2021/06/30 10:33:31;;;;;;;2.08;0.77;;;21.30;99.90;;;;;;6302060;28;20190;-78
2021/06/30 10:36:53;;;;;;;1.65;0.85;;;21.70;97.60;;;;;;6302774;28;20048;-78
2021/06/30 10:39:56;;;;;;;1.08;0.68;;;21.80;97.10;;;;;;6301688;28;20773;-78
2021/06/30 10:43:10;;;;;;;0.68;0.68;;;22.30;94.40;;;;;;6301856;28;20048;-75
2021/06/30 10:46:25;;;;;;;1.17;0.63;;;22.50;93.40;;;;;;6275962;28;20041;-77
2021/06/30 10:49:30;;;;;;;0.47;0.40;;;22.60;91.80;;;;;;6277925;28;20138;-76
2021/06/30 10:52:32;;;;;;;0.80;0.75;;;22.20;89.90;;;;;;6276698;28;20107;-79
2021/06/30 10:55:50;;;;;;;2.25;0.73;;;21.80;89.40;;;;;;6278224;28;20044;-78
2021/06/30 10:59:03;;;;;;;0.57;0.57;;;21.80;91.60;;;;;;6277846;28;20546;-79
2021/06/30 11:02:12;;;;;;;0.63;0.45;;;21.90;91.50;;;;;;6298796;23;20056;-76
2021/06/30 11:05:38;;;;;;;1.35;0.55;;;21.80;93.80;;;;;;6274559;28;20052;-76
2021/06/30 11:08:45;;;;;;;0.40;0.40;;;;;;;;;;6274694;28;20102;-75
2021/06/30 11:11:58;;;;;;;1.20;0.70;;;21.60;88.50;;;;;;6273915;28;20045;-75
2021/06/30 11:15:00;;;;;;;2.40;0.52;;;21.60;89.50;;;;;;6275139;28;20060;-76
2021/06/30 11:18:02;;;;;;;0.50;0.50;;;21.50;87.10;;;;;;6273738;28;20053;-76
2021/06/30 11:21:06;;;;;;;2.28;0.57;;;21.50;85.80;;;;;;6274162;28;20124;-76
2021/06/30 11:24:47;;;;;;;1.20;0.45;;;21.40;86.10;;;;;;6273260;28;20072;-76
2021/06/30 11:27:49;;;;;;;1.80;0.70;;;21.50;87.50;;;;;;6273311;28;20248;-77
2021/06/30 11:30:51;;;;;;;3.97;1.42;;;21.50;85.30;;;;;;6273505;28;20088;-76
2021/06/30 11:34:06;;;;;;;0.52;0.52;;;21.40;86.20;;;;;;6272351;28;20059;-76
2021/06/30 11:37:10;;;;;;;0.70;0.70;;;21.20;86.60;;;;;;6273657;28;20048;-76
2021/06/30 11:40:17;;;;;;;1.15;1.02;;;20.80;89.30;;;;;;6272879;28;20506;-76
2021/06/30 11:43:23;;;;;;;3.20;0.85;;;20.50;92.10;;;;;;6272950;28;20056;-76
2021/06/30 11:46:25;;;;;;;1.40;1.20;;;20.20;93.80;;;;;;6268191;28;20048;-75
2021/06/30 11:49:27;;;;;;;1.63;1.52;;;19.60;96.40;;;;;;6273725;28;20059;-75
2021/06/30 11:52:31;;;;;;;0.90;0.90;;;19.20;98.10;;;;;;6272803;28;20539;-75
2021/06/30 11:55:38;;;;;;;2.53;1.33;;;19.10;99.60;;;;;;6272766;28;20110;-75
2021/06/30 11:58:42;;;;;;;2.45;2.25;;;19.10;99.90;;;;;;6272661;28;20087;-75
2021/06/30 12:01:44;;;;;;;1.83;1.73;;;19.20;99.90;;;;;;6272798;28;20131;-75
2021/06/30 12:04:45;;;;;;;2.05;0.90;;;19.20;99.90;;;;;;6272574;28;20049;-76
2021/06/30 12:07:49;;;;;;;1.52;1.17;;;18.90;99.90;;;;;;6272161;28;20126;-75
2021/06/30 12:10:51;;;;;;;1.73;1.10;;;18.60;99.90;;;;;;6272565;28;20170;-75
2021/06/30 12:14:10;;;;;;;1.77;1.63;;;18.30;99.90;;;;;;6272156;28;20130;-75
2021/06/30 12:17:15;;;;;;;6.25;1.50;;;18.00;99.90;;;;;;6272644;28;20134;-75
2021/06/30 12:20:19;;;;;;;3.95;1.50;;;17.80;99.90;;;;;;6272382;28;20037;-74
2021/06/30 12:23:22;;;;;;;2.47;1.67;;;17.50;99.90;;;;;;6272518;28;20056;-75
2021/06/30 12:26:24;;;;;;;1.83;1.40;;;17.10;99.90;;;;;;6271924;28;20522;-75
2021/06/30 12:29:26;;;;;;;2.00;1.90;;;16.90;99.90;;;;;;6272785;28;20064;-75
2021/06/30 12:32:29;;;;;;;2.60;2.00;;;16.60;99.90;;;;;;6272170;28;20124;-75
2021/06/30 12:35:32;;;;;;;3.15;1.60;;;16.50;99.90;;;;;;6271851;28;20079;-75
2021/06/30 12:38:35;;;;;;;3.38;2.92;;;16.60;99.90;;;;;;6272081;28;20159;-75
2021/06/30 12:41:50;;;;;;;4.07;2.35;;;16.90;99.90;;;;;;6272215;28;20141;-75
2021/06/30 12:44:55;;;;;;;3.00;1.90;;;17.50;99.90;;;;;;6270539;28;20521;-75
2021/06/30 12:47:59;;;;;;;2.75;1.77;;;18.10;99.90;;;;;;6257338;28;20171;-75
2021/06/30 12:51:10;;;;;;;4.53;2.22;;;18.40;99.90;;;;;;6246526;28;20132;-75
2021/06/30 12:54:13;;;;;;;4.85;1.90;;;18.60;99.90;;;;;;6247127;28;20048;-74
2021/06/30 12:57:15;;;;;;;3.72;2.03;;;18.70;99.90;;;;;;6246733;28;20081;-75
2021/06/30 13:00:19;;;;;;;4.05;1.98;;;19.10;99.90;;;;;;6246877;28;20053;-75
2021/06/30 13:03:21;;;;;;;2.47;2.15;;;19.20;99.90;;;;;;6246189;28;20058;-74
2021/06/30 13:06:24;;;;;;;3.55;1.58;;;19.30;99.90;;;;;;6246248;28;20065;-74
2021/06/30 13:09:33;;;;;;;3.90;1.83;;;19.40;99.90;;;;;;6247132;28;20140;-75
2021/06/30 13:12:35;;;;;;;2.15;1.60;;;19.90;99.90;;;;;;6247857;28;20046;-75
2021/06/30 13:15:37;;;;;;;2.10;1.90;;;20.30;99.90;;;;;;6270772;28;20442;-76
2021/06/30 13:18:44;;;;;;;1.42;1.33;;;20.50;99.90;;;;;;6270789;28;20144;-75
2021/06/30 13:21:51;;;;;;;2.38;1.30;;;20.50;99.90;;;;;;6272379;28;20045;-74
2021/06/30 13:24:58;;;;;;;1.13;1.00;;;20.50;99.90;;;;;;6270840;28;20052;-75
2021/06/30 13:28:06;;;;;;;1.50;1.40;;;20.60;99.90;;;;;;6270531;28;20056;-75
2021/06/30 13:34:42;;;;;;;1.48;1.08;;;20.50;99.90;;;;;;6270283;28;20037;-75
2021/06/30 13:37:45;;;;;;;3.00;1.67;;;20.40;99.90;;;;;;6270972;28;20060;-75
2021/06/30 13:40:51;;;;;;;1.33;0.88;;;20.30;99.90;;;;;;6270288;28;20102;-75
2021/06/30 13:43:54;;;;;;;1.20;0.90;;;20.10;99.90;;;;;;6270092;28;20055;-75
2021/06/30 13:46:56;;;;;;;1.15;0.90;;;20.20;99.90;;;;;;6269032;28;20102;-75
2021/06/30 13:49:58;;;;;;;1.15;0.90;;;;;;;;;;6264147;28;20502;-74
2021/06/30 13:53:00;;;;;;;2.38;0.70;;;20.80;98.00;;;;;;6270849;28;20049;-75
2021/06/30 13:56:08;;;;;;;0.98;0.50;;;21.20;95.20;;;;;;6267551;28;20206;-75
2021/06/30 13:59:10;;;;;;;0.77;0.60;;;21.40;93.10;;;;;;6270117;28;20528;-75
2021/06/30 14:02:12;;;;;;;1.90;0.50;;;21.50;93.10;;;;;;6269588;28;20068;-75
2021/06/30 14:05:14;;;;;;;2.47;0.60;;;21.60;92.20;;;;;;6270652;28;20182;-75
2021/06/30 14:08:17;;;;;;;3.33;0.75;;;21.70;91.60;;;;;;6269622;28;20056;-75
2021/06/30 14:11:20;;;;;;;1.23;0.60;;;21.90;90.30;;;;;;6269938;28;20528;-75
2021/06/30 14:14:23;;;;;;;0.77;0.68;;;21.90;90.00;;;;;;6269854;28;20080;-76
2021/06/30 14:17:25;;;;;;;0.98;0.90;;;21.80;90.20;;;;;;6270045;28;20057;-76
2021/06/30 14:20:27;;;;;;;2.15;1.15;;;21.50;90.60;;;;;;6269762;28;20083;-76
2021/06/30 14:23:29;;;;;;;1.33;1.02;;;21.20;90.80;;;;;;6269454;28;20049;-74
2021/06/30 14:26:32;;;;;;;0.80;0.60;;;21.10;92.50;;;;;;6269469;28;20530;-75
2021/06/30 14:29:34;;;;;;;1.35;0.65;;;21.00;91.20;;;;;;6269738;28;20049;-75
2021/06/30 14:32:36;;;;;;;1.42;0.70;;;21.10;91.00;;;;;;6270762;28;20123;-75
2021/06/30 14:35:38;;;;;;;1.45;0.60;;;21.20;91.80;;;;;;6271832;28;20124;-76
2021/06/30 14:38:40;;;;;;;5.10;0.68;;;21.50;91.10;;;;;;6270088;28;20045;-76
2021/06/30 14:41:43;;;;;;;1.73;0.77;;;21.70;90.00;;;;;;6269931;28;20136;-77
2021/06/30 14:44:46;;;;;;;2.65;0.65;;;21.70;89.60;;;;;;6269590;28;20425;-76
2021/06/30 14:47:47;;;;;;;0.88;0.65;;;21.70;90.00;;;;;;6267857;28;20613;-76
2021/06/30 14:50:49;;;;;;;0.85;0.75;;;21.40;91.00;;;;;;6246723;28;20068;-76
2021/06/30 14:53:51;;;;;;;1.48;0.65;;;21.10;91.90;;;;;;6244907;28;20092;-75
2021/06/30 14:56:54;;;;;;;1.35;0.82;;;20.90;92.60;;;;;;6244614;28;20446;-75
2021/06/30 14:59:56;;;;;;;1.58;0.40;;;20.60;93.40;;;;;;6244396;28;20636;-76
2021/06/30 15:02:58;;;;;;;0.80;0.40;;;20.30;93.10;;;;;;6244160;28;20135;-76
2021/06/30 15:06:00;;;;;;;2.20;0.65;;;20.10;93.40;;;;;;6244066;28;20493;-75
2021/06/30 15:09:04;;;;;;;1.17;0.73;;;19.80;94.40;;;;;;6247383;28;20088;-76
2021/06/30 15:12:08;;;;;;;1.75;1.40;;;19.50;95.00;;;;;;6248864;28;20041;-75
2021/06/30 15:15:11;;;;;;;0.80;0.52;;;19.20;96.20;;;;;;6271838;28;20049;-75
2021/06/30 15:18:16;;;;;;;1.88;0.50;;;19.00;97.40;;;;;;6273630;28;20118;-76
2021/06/30 15:21:18;;;;;;;0.93;0.50;;;18.90;98.00;;;;;;6274147;28;20045;-76
2021/06/30 15:24:21;;;;;;;1.70;0.60;;;18.80;97.90;;;;;;6273571;28;20183;-75
2021/06/30 15:27:25;;;;;;;0.88;0.75;;;18.80;98.80;;;;;;6273368;28;20257;-75
2021/06/30 15:30:26;;;;;;;1.13;0.50;;;18.80;98.30;;;;;;6273539;28;20132;-75
2021/06/30 15:33:28;;;;;;;0.32;0.32;;;19.00;98.60;;;;;;6273534;28;20151;-75
2021/06/30 15:36:30;;;;;;;0.30;0.30;;;19.00;97.50;;;;;;6273079;28;20140;-74
2021/06/30 15:39:33;;;;;;;1.95;0.88;;;19.10;97.00;;;;;;6273277;28;20178;-75
2021/06/30 15:42:39;;;;;;;0.77;0.75;;;19.10;97.40;;;;;;6272745;28;20494;-75
2021/06/30 15:45:41;;;;;;;0.47;0.47;;;19.30;97.30;;;;;;6273225;28;20536;-76
2021/06/30 15:48:44;;;;;;;0.57;0.57;;;19.40;97.40;;;;;;6272299;28;20067;-75
2021/06/30 15:51:47;;;;;;;0.88;0.57;;;19.60;97.10;;;;;;6268681;28;20525;-75
2021/06/30 15:54:48;;;;;;;0.85;0.40;;;19.60;96.50;;;;;;6273107;28;20037;-75
2021/06/30 15:57:52;;;;;;;1.23;0.40;;;19.70;95.70;;;;;;6272411;28;20159;-75
2021/06/30 16:00:53;;;;;;;0.40;0.40;;;19.60;95.60;;;;;;6273353;28;20103;-76